IW4EMA-3 Malborghetto di boara IT current weather conditions

sailwx.info

Wind from 166 at 2 knots gusting 2

Air temperature 23.3° C
Dewpoint 17.1° C

Last reported at 2020-Jul-10 23:04 UTC.
Time now 2020-Jul-10 23:51 UTC

Location: N 44°52' E 011°39'.
View on Google Maps.

See reports from other nearby stations

  
Tides and Currents Weather Stations Pressure Air Temp Water Temp Dewpoint Dewpoint Depression Visibility Wind Speed Wind Dir Waves Ship Positions
date/time (UTC)wind fromknots sea level pressurealtimeterstation pressurevisibilityair tempwater tempwave heightnotes
2020-Jul-10 23:04 166 2 gusting 2 23.3
2020-Jul-10 22:54 23.3
2020-Jul-10 22:44 22.8
2020-Jul-10 22:33 23.3
2020-Jul-10 22:23 135 0 gusting 0 23.9
2020-Jul-10 22:13 180 23.9
2020-Jul-10 22:03 180 2 gusting 2 23.9
2020-Jul-10 21:52 112 0 gusting 0 23.9
2020-Jul-10 21:42 168 0 gusting 1 23.9
2020-Jul-10 21:32 23.9
2020-Jul-10 21:22 135 1 gusting 1 23.9
2020-Jul-10 21:11 090 0 gusting 0 24.4
2020-Jul-10 21:01 24.4
2020-Jul-10 20:51 180 0 gusting 0 24.4
2020-Jul-10 20:41 157 2 gusting 2 24.4
2020-Jul-10 20:30 135 0 gusting 0 24.4
2020-Jul-10 20:20 135 1 gusting 1 25.0
2020-Jul-10 20:10 157 2 gusting 2 25.0
2020-Jul-10 20:00 112 0 gusting 0 25.0
2020-Jul-10 19:49 067 0 gusting 0 25.6
2020-Jul-10 19:39 180 1 gusting 1 25.6
2020-Jul-10 19:29 112 3 gusting 3 25.6
2020-Jul-10 19:19 180 2 gusting 2 26.1
2020-Jul-10 19:08 135 4 gusting 5 26.1
2020-Jul-10 18:58 193 4 gusting 5 26.7
2020-Jul-10 18:48 135 4 gusting 4 27.2
2020-Jul-10 18:38 112 2 gusting 2 27.2
2020-Jul-10 18:28 157 1 gusting 1 27.8
2020-Jul-10 18:17 067 2 gusting 2 27.8
2020-Jul-10 18:07 242 0 gusting 1 28.3
2020-Jul-10 17:57 112 7 gusting 8 28.3
2020-Jul-10 17:46 135 6 gusting 6 28.3
2020-Jul-10 17:36 168 5 gusting 5 28.9
2020-Jul-10 17:26 108 2 gusting 3 28.9
2020-Jul-10 17:16 180 3 gusting 3 29.4
2020-Jul-10 17:05 157 6 gusting 6 29.4
2020-Jul-10 16:55 112 4 gusting 4 30.0
2020-Jul-10 16:45 157 1 gusting 1 30.0
2020-Jul-10 16:35 157 2 gusting 2 30.0
2020-Jul-10 16:24 180 6 gusting 6 30.6
2020-Jul-10 16:14 157 6 gusting 6 30.6
2020-Jul-10 16:04 135 4 gusting 4 30.6
2020-Jul-10 15:54 090 5 gusting 5 31.1
2020-Jul-10 15:43 157 1 gusting 1 31.1
2020-Jul-10 15:33 157 10 gusting 10 31.1
2020-Jul-10 15:23 112 5 gusting 5 31.1
2020-Jul-10 15:13 088 3 gusting 3 31.7
2020-Jul-10 15:02 157 4 gusting 4 31.7
2020-Jul-10 14:52 180 3 gusting 3 32.2
2020-Jul-10 14:42 180 4 gusting 4 32.8
2020-Jul-10 14:32 090 1 gusting 3 32.8
2020-Jul-10 14:22 112 4 gusting 4 32.8
2020-Jul-10 14:11 090 3 gusting 3 33.3
2020-Jul-10 14:01 135 1 gusting 1 32.8
2020-Jul-10 13:51 112 0 gusting 0 33.9
2020-Jul-10 13:41 33.9
2020-Jul-10 13:30 054 2 gusting 2 33.3
2020-Jul-10 13:20 125 3 gusting 3 34.4
2020-Jul-10 13:10 135 1 gusting 2 33.3
2020-Jul-10 13:00 054 1 gusting 1 33.9
2020-Jul-10 12:49 053 0 gusting 1 33.3
2020-Jul-10 12:39 096 0 gusting 1 34.4
2020-Jul-10 12:29 045 0 gusting 0 33.3
2020-Jul-10 12:19 32.8
2020-Jul-10 12:08 045 4 gusting 4 33.3
2020-Jul-10 11:58 090 3 gusting 3 33.3
2020-Jul-10 11:48 135 1 gusting 1 32.8
2020-Jul-10 11:38 202 4 gusting 4 32.8
2020-Jul-10 11:27 045 1 gusting 1 33.3
2020-Jul-10 11:17 180 1 gusting 1 32.8
2020-Jul-10 11:07 022 0 gusting 0 33.9
2020-Jul-10 10:57 090 1 gusting 1 32.2
2020-Jul-10 10:47 157 0 gusting 0 32.8
2020-Jul-10 10:36 33.3
2020-Jul-10 10:26 32.8
2020-Jul-10 10:16 247 2 gusting 2 32.2
2020-Jul-10 10:06 235 3 gusting 3 32.8
2020-Jul-10 09:55 180 4 gusting 4 31.7
2020-Jul-10 09:45 202 0 gusting 0 31.7
2020-Jul-10 09:35 067 1 gusting 1 31.1
2020-Jul-10 09:25 112 3 gusting 3 30.6
2020-Jul-10 09:20 202 4 gusting 4 30.0
2020-Jul-10 09:09 169 3 gusting 3 30.6
2020-Jul-10 08:59 135 1 gusting 1 30.0
2020-Jul-10 08:49 135 1 gusting 1 30.0
2020-Jul-10 08:39 090 1 gusting 2 31.1
2020-Jul-10 08:28 090 30.0
2020-Jul-10 08:18 135 1 gusting 1 30.0
2020-Jul-10 08:08 112 0 gusting 0 29.4
2020-Jul-10 07:58 022 4 gusting 4 30.0
2020-Jul-10 07:47 090 0 gusting 0 30.0
2020-Jul-10 07:37 022 0 gusting 0 29.4
2020-Jul-10 07:27 022 0 gusting 0 28.9
2020-Jul-10 07:16 045 0 gusting 0 27.8
2020-Jul-10 07:06 28.3
2020-Jul-10 06:56 045 27.8
2020-Jul-10 06:46 022 0 gusting 0 26.7
2020-Jul-10 06:36 090 2 gusting 2 26.1
2020-Jul-10 06:25 25.6
2020-Jul-10 06:15 090 0 gusting 1 25.6
2020-Jul-10 06:05 067 0 gusting 0 25.6
2020-Jul-10 05:55 045 24.4
2020-Jul-10 05:44 090 0 gusting 0 23.3
2020-Jul-10 05:34 157 22.8
2020-Jul-10 05:24 112 0 gusting 0 22.8
2020-Jul-10 05:13 21.7
2020-Jul-10 05:03 21.7
2020-Jul-10 04:53 157 0 gusting 0 20.6
2020-Jul-10 04:43 202 0 gusting 0 20.6
2020-Jul-10 04:33 20.0
2020-Jul-10 04:22 19.4
2020-Jul-10 04:12 18.9
2020-Jul-10 04:02 19.4
2020-Jul-10 03:52 18.9
2020-Jul-10 03:41 045 1 gusting 1 18.9
2020-Jul-10 03:31 19.4
2020-Jul-10 03:21 19.4
2020-Jul-10 03:11 19.4
2020-Jul-10 03:00 022 0 gusting 0 19.4
2020-Jul-10 02:50 19.4
2020-Jul-10 02:40 20.0
2020-Jul-10 02:30 20.0
2020-Jul-10 02:19 20.0
2020-Jul-10 02:09 20.0
2020-Jul-10 01:59 20.6
2020-Jul-10 01:49 20.6
2020-Jul-10 01:38 20.6
2020-Jul-10 01:28 20.6
2020-Jul-10 01:18 20.6
2020-Jul-10 01:08 21.1
2020-Jul-10 00:57 21.1
2020-Jul-10 00:47 21.7
2020-Jul-10 00:36 21.7
2020-Jul-10 00:26 21.7
2020-Jul-10 00:16 21.7
2020-Jul-10 00:06 157 0 gusting 0 21.7
2020-Jul-09 23:55 202 0 gusting 0 22.2
2020-Jul-09 23:45 21.7
2020-Jul-09 23:35 225 1 gusting 1 21.7
2020-Jul-09 23:25 22.2
2020-Jul-09 23:20 202 0 gusting 0 22.2
2020-Jul-09 23:09 180 1 gusting 1 22.8
2020-Jul-09 22:59 216 1 gusting 1 22.8
2020-Jul-09 22:49 202 1 gusting 1 22.8
2020-Jul-09 22:38 202 1 gusting 1 22.8
2020-Jul-09 22:28 202 0 gusting 0 23.3
2020-Jul-09 22:18 202 23.3
2020-Jul-09 22:08 202 23.3
2020-Jul-09 21:57 202 22.8
2020-Jul-09 21:47 194 0 gusting 0 22.8
2020-Jul-09 21:37 157 1 gusting 1 22.8
2020-Jul-09 21:27 157 0 gusting 0 22.8
2020-Jul-09 21:16 180 1 gusting 1 22.8
2020-Jul-09 21:06 23.3
2020-Jul-09 20:56 188 2 gusting 2 23.3
2020-Jul-09 20:46 180 2 gusting 2 23.9
2020-Jul-09 20:35 157 3 gusting 3 23.9
2020-Jul-09 20:25 202 1 gusting 1 23.9
2020-Jul-09 20:15 180 1 gusting 1 23.9
2020-Jul-09 20:05 24.4
2020-Jul-09 19:54 135 1 gusting 1 24.4
2020-Jul-09 19:44 135 2 gusting 2 25.0
2020-Jul-09 19:34 168 1 gusting 1 25.0
2020-Jul-09 19:24 135 1 gusting 1 25.6
2020-Jul-09 19:13 135 0 gusting 0 25.6
2020-Jul-09 19:03 180 3 gusting 3 26.1
2020-Jul-09 18:53 157 1 gusting 1 26.1
2020-Jul-09 18:43 146 2 gusting 4 26.7
2020-Jul-09 18:32 170 2 gusting 3 27.2
2020-Jul-09 18:22 135 2 gusting 2 27.2
2020-Jul-09 18:12 112 2 gusting 2 27.8
2020-Jul-09 18:02 157 2 gusting 2 27.8
2020-Jul-09 17:51 130 3 gusting 4 28.3
2020-Jul-09 17:41 157 3 gusting 3 28.3
2020-Jul-09 17:31 135 6 gusting 6 28.9
2020-Jul-09 17:21 180 3 gusting 3 28.9
2020-Jul-09 17:10 180 0 gusting 0 28.9
2020-Jul-09 17:00 135 2 gusting 2 29.4
2020-Jul-09 16:50 180 4 gusting 4 29.4
2020-Jul-09 16:40 202 3 gusting 3 30.0
2020-Jul-09 16:35 028 2 gusting 3 30.0
2020-Jul-09 16:24 090 1 gusting 1 30.6
2020-Jul-09 16:14 045 2 gusting 2 30.6
2020-Jul-09 16:04 180 1 gusting 1 30.6
2020-Jul-09 15:53 067 1 gusting 1 30.6
2020-Jul-09 15:43 315 0 gusting 0 30.6
2020-Jul-09 15:33 30.6
2020-Jul-09 15:23 022 3 gusting 3 30.6
2020-Jul-09 15:13 135 2 gusting 2 30.6
2020-Jul-09 15:02 315 0 gusting 0 31.1
2020-Jul-09 14:52 022 5 gusting 5 30.6
2020-Jul-09 14:42 090 3 gusting 3 31.1
2020-Jul-09 14:32 022 2 gusting 2 31.1
2020-Jul-09 14:21 31.1
2020-Jul-09 14:11 112 3 gusting 3 31.1
2020-Jul-09 14:01 32.2
2020-Jul-09 13:51 32.2
2020-Jul-09 13:40 157 2 gusting 2 31.1
2020-Jul-09 13:30 180 4 gusting 4 31.1
2020-Jul-09 13:20 31.7
2020-Jul-09 13:10 045 1 gusting 1 31.7
2020-Jul-09 13:05 32.2
2020-Jul-09 12:54 135 0 gusting 0 31.7
2020-Jul-09 12:44 022 5 gusting 5 31.7
2020-Jul-09 12:34 045 1 gusting 1 33.3
2020-Jul-09 12:24 337 1 gusting 1 32.2
2020-Jul-09 12:13 33.3
2020-Jul-09 12:03 34.4
2020-Jul-09 11:53 008 2 gusting 2 32.8
2020-Jul-09 11:43 337 0 gusting 0 31.7
2020-Jul-09 11:32 135 1 gusting 1 31.1
2020-Jul-09 11:22 022 1 gusting 1 31.7
2020-Jul-09 11:12 022 3 gusting 3 30.0
2020-Jul-09 11:01 31.1
2020-Jul-09 10:51 045 1 gusting 1 30.6
2020-Jul-09 10:41 067 2 gusting 2 28.9
2020-Jul-09 10:31 157 2 gusting 2 29.4
2020-Jul-09 10:21 180 30.0
2020-Jul-09 10:10 112 0 gusting 0 30.0
2020-Jul-09 10:00 022 3 gusting 3 30.0
2020-Jul-09 09:50 188 1 gusting 2 30.6
2020-Jul-09 09:40 022 30.0
2020-Jul-09 09:30 022 2 gusting 2 29.4
2020-Jul-09 09:25 045 6 gusting 6 28.9
2020-Jul-09 09:14 045 1 gusting 1 29.4
2020-Jul-09 09:04 28.9
2020-Jul-09 08:54 135 1 gusting 1 29.4
2020-Jul-09 08:44 067 1 gusting 1 28.3
2020-Jul-09 08:33 067 0 gusting 0 27.8
2020-Jul-09 08:23 135 1 gusting 1 27.2
2020-Jul-09 08:13 180 1 gusting 1 26.7
2020-Jul-09 08:02 090 3 gusting 3 26.7
2020-Jul-09 07:52 112 2 gusting 2 26.1
2020-Jul-09 07:42 090 5 gusting 5 26.1
2020-Jul-09 07:32 045 3 gusting 3 25.6
2020-Jul-09 07:21 155 1 gusting 1 25.6
2020-Jul-09 07:11 022 24.4
2020-Jul-09 07:01 104 0 gusting 1 23.9
2020-Jul-09 06:51 083 2 gusting 2 23.9
2020-Jul-09 06:40 110 1 gusting 1 22.8
2020-Jul-09 06:30 157 2 gusting 2 22.8
2020-Jul-09 06:20 23.3
2020-Jul-09 06:10 22.8
2020-Jul-09 06:05 124 0 gusting 0 21.7
2020-Jul-09 05:54 21.7
2020-Jul-09 05:44 135 21.1
2020-Jul-09 05:34 112 20.6
2020-Jul-09 05:24 157 1 gusting 1 20.0
2020-Jul-09 05:13 112 0 gusting 0 19.4
2020-Jul-09 05:03 135 1 gusting 1 19.4
2020-Jul-09 04:53 135 0 gusting 0 20.0
2020-Jul-09 04:43 19.4
2020-Jul-09 04:33 17.8
2020-Jul-09 04:22 16.7
2020-Jul-09 04:12 16.1
2020-Jul-09 04:02 16.1
2020-Jul-09 03:52 16.1
2020-Jul-09 03:41 16.7
2020-Jul-09 03:31 16.7
2020-Jul-09 03:21 16.7
2020-Jul-09 03:11 16.7
2020-Jul-09 03:00 16.7
2020-Jul-09 02:50 16.7
2020-Jul-09 02:40 16.7
2020-Jul-09 02:30 022 16.7
2020-Jul-09 02:25 022 16.7
2020-Jul-09 02:14 022 16.7
2020-Jul-09 02:04 16.7
2020-Jul-09 01:54 337 1 gusting 1 16.7
2020-Jul-09 01:43 17.2
2020-Jul-09 01:33 17.2
2020-Jul-09 01:23 17.8
2020-Jul-09 01:13 17.8
2020-Jul-09 01:03 18.3
2020-Jul-09 00:50 18.3
2020-Jul-09 00:39 18.9
2020-Jul-09 00:29 18.9
2020-Jul-09 00:19 18.9
2020-Jul-09 00:09 202 1 gusting 1 19.4
2020-Jul-08 23:58 180 0 gusting 0 19.4
2020-Jul-08 23:48 180 19.4
2020-Jul-08 23:38 202 1 gusting 1 19.4
2020-Jul-08 23:28 19.4
2020-Jul-08 23:18 180 0 gusting 0 19.4
2020-Jul-08 23:07 180 1 gusting 1 19.4